sensor_id;sensor_type;location;lat;lon;timestamp;P1;durP1;ratioP1;P2;durP2;ratioP2
1380;SDS011;684;48.342;10.096;2022-08-21T00:02:26;7.67;;;4.30;;
1380;SDS011;684;48.342;10.096;2022-08-21T00:04:54;7.17;;;3.97;;
1380;SDS011;684;48.342;10.096;2022-08-21T00:07:21;6.60;;;3.80;;
1380;SDS011;684;48.342;10.096;2022-08-21T00:09:48;8.00;;;4.53;;
1380;SDS011;684;48.342;10.096;2022-08-21T00:12:15;6.30;;;4.03;;
1380;SDS011;684;48.342;10.096;2022-08-21T00:14:43;6.63;;;4.20;;
1380;SDS011;684;48.342;10.096;2022-08-21T00:17:10;7.83;;;4.30;;
1380;SDS011;684;48.342;10.096;2022-08-21T00:19:37;7.53;;;4.70;;
1380;SDS011;684;48.342;10.096;2022-08-21T00:22:04;6.27;;;4.20;;
1380;SDS011;684;48.342;10.096;2022-08-21T00:24:31;6.83;;;4.60;;
1380;SDS011;684;48.342;10.096;2022-08-21T00:26:57;7.30;;;4.53;;
1380;SDS011;684;48.342;10.096;2022-08-21T00:29:24;7.00;;;4.60;;
1380;SDS011;684;48.342;10.096;2022-08-21T00:31:52;6.97;;;4.23;;
1380;SDS011;684;48.342;10.096;2022-08-21T00:34:19;6.67;;;4.50;;
1380;SDS011;684;48.342;10.096;2022-08-21T00:36:46;8.43;;;4.53;;
1380;SDS011;684;48.342;10.096;2022-08-21T00:39:13;7.40;;;4.90;;
1380;SDS011;684;48.342;10.096;2022-08-21T00:41:40;6.87;;;4.17;;
1380;SDS011;684;48.342;10.096;2022-08-21T00:44:09;7.37;;;4.47;;
1380;SDS011;684;48.342;10.096;2022-08-21T00:46:38;6.63;;;4.37;;
1380;SDS011;684;48.342;10.096;2022-08-21T00:49:07;7.00;;;4.97;;
1380;SDS011;684;48.342;10.096;2022-08-21T00:51:37;9.03;;;4.13;;
1380;SDS011;684;48.342;10.096;2022-08-21T00:54:08;7.63;;;5.13;;
1380;SDS011;684;48.342;10.096;2022-08-21T00:56:36;6.93;;;4.33;;
1380;SDS011;684;48.342;10.096;2022-08-21T00:59:03;7.30;;;5.00;;
1380;SDS011;684;48.342;10.096;2022-08-21T01:01:31;6.70;;;4.60;;
1380;SDS011;684;48.342;10.096;2022-08-21T01:03:58;7.77;;;4.90;;
1380;SDS011;684;48.342;10.096;2022-08-21T01:06:27;7.83;;;4.60;;
1380;SDS011;684;48.342;10.096;2022-08-21T01:08:54;8.30;;;4.73;;
1380;SDS011;684;48.342;10.096;2022-08-21T01:11:21;6.97;;;4.73;;
1380;SDS011;684;48.342;10.096;2022-08-21T01:13:48;8.23;;;4.47;;
1380;SDS011;684;48.342;10.096;2022-08-21T01:16:17;9.67;;;4.40;;
1380;SDS011;684;48.342;10.096;2022-08-21T01:18:46;7.10;;;5.17;;
1380;SDS011;684;48.342;10.096;2022-08-21T01:21:16;6.90;;;4.50;;
1380;SDS011;684;48.342;10.096;2022-08-21T01:23:45;7.17;;;4.90;;
1380;SDS011;684;48.342;10.096;2022-08-21T01:26:15;8.03;;;5.10;;
1380;SDS011;684;48.342;10.096;2022-08-21T01:28:46;7.50;;;5.10;;
1380;SDS011;684;48.342;10.096;2022-08-21T01:31:17;7.93;;;5.20;;
1380;SDS011;684;48.342;10.096;2022-08-21T01:33:48;8.30;;;5.00;;
1380;SDS011;684;48.342;10.096;2022-08-21T01:36:16;8.63;;;5.20;;
1380;SDS011;684;48.342;10.096;2022-08-21T01:38:43;7.37;;;5.13;;
1380;SDS011;684;48.342;10.096;2022-08-21T01:41:12;7.70;;;4.83;;
1380;SDS011;684;48.342;10.096;2022-08-21T01:43:39;7.33;;;5.20;;
1380;SDS011;684;48.342;10.096;2022-08-21T01:46:06;8.90;;;5.33;;
1380;SDS011;684;48.342;10.096;2022-08-21T01:48:33;8.93;;;6.10;;
1380;SDS011;684;48.342;10.096;2022-08-21T01:51:01;8.60;;;5.27;;
1380;SDS011;684;48.342;10.096;2022-08-21T01:53:29;9.53;;;5.73;;
1380;SDS011;684;48.342;10.096;2022-08-21T01:55:56;10.97;;;5.13;;
1380;SDS011;684;48.342;10.096;2022-08-21T01:58:23;8.60;;;6.20;;
1380;SDS011;684;48.342;10.096;2022-08-21T02:00:50;8.63;;;4.83;;
1380;SDS011;684;48.342;10.096;2022-08-21T02:03:17;9.10;;;6.00;;
1380;SDS011;684;48.342;10.096;2022-08-21T02:05:44;7.80;;;5.53;;
1380;SDS011;684;48.342;10.096;2022-08-21T02:08:11;10.27;;;5.67;;
1380;SDS011;684;48.342;10.096;2022-08-21T02:10:39;7.50;;;5.80;;
1380;SDS011;684;48.342;10.096;2022-08-21T02:13:06;11.60;;;6.47;;
1380;SDS011;684;48.342;10.096;2022-08-21T02:15:33;10.33;;;7.00;;
1380;SDS011;684;48.342;10.096;2022-08-21T02:18:01;8.83;;;6.50;;
1380;SDS011;684;48.342;10.096;2022-08-21T02:20:29;10.93;;;7.33;;
1380;SDS011;684;48.342;10.096;2022-08-21T02:22:58;10.27;;;6.77;;
1380;SDS011;684;48.342;10.096;2022-08-21T02:25:25;10.40;;;7.20;;
1380;SDS011;684;48.342;10.096;2022-08-21T02:27:54;9.23;;;7.17;;
1380;SDS011;684;48.342;10.096;2022-08-21T02:30:22;10.63;;;7.33;;
1380;SDS011;684;48.342;10.096;2022-08-21T02:32:51;10.30;;;7.87;;
1380;SDS011;684;48.342;10.096;2022-08-21T02:35:18;10.93;;;7.70;;
1380;SDS011;684;48.342;10.096;2022-08-21T02:37:48;10.50;;;8.20;;
1380;SDS011;684;48.342;10.096;2022-08-21T02:40:17;9.77;;;7.30;;
1380;SDS011;684;48.342;10.096;2022-08-21T02:42:46;11.30;;;8.20;;
1380;SDS011;684;48.342;10.096;2022-08-21T02:45:15;11.93;;;7.93;;
1380;SDS011;684;48.342;10.096;2022-08-21T02:47:46;16.67;;;9.40;;
1380;SDS011;684;48.342;10.096;2022-08-21T02:50:16;10.90;;;7.30;;
1380;SDS011;684;48.342;10.096;2022-08-21T02:52:44;10.33;;;7.30;;
1380;SDS011;684;48.342;10.096;2022-08-21T02:55:11;11.47;;;7.60;;
1380;SDS011;684;48.342;10.096;2022-08-21T02:57:38;11.93;;;7.90;;
1380;SDS011;684;48.342;10.096;2022-08-21T03:00:05;10.90;;;8.13;;
1380;SDS011;684;48.342;10.096;2022-08-21T03:02:35;13.50;;;8.20;;
1380;SDS011;684;48.342;10.096;2022-08-21T03:05:03;16.20;;;7.50;;
1380;SDS011;684;48.342;10.096;2022-08-21T03:07:31;19.00;;;7.80;;
1380;SDS011;684;48.342;10.096;2022-08-21T03:09:58;12.63;;;7.43;;
1380;SDS011;684;48.342;10.096;2022-08-21T03:12:25;11.40;;;7.40;;
1380;SDS011;684;48.342;10.096;2022-08-21T03:14:52;16.03;;;7.70;;
1380;SDS011;684;48.342;10.096;2022-08-21T03:17:19;13.80;;;7.60;;
1380;SDS011;684;48.342;10.096;2022-08-21T03:19:47;11.63;;;7.30;;
1380;SDS011;684;48.342;10.096;2022-08-21T03:22:14;12.73;;;6.70;;
1380;SDS011;684;48.342;10.096;2022-08-21T03:24:42;9.50;;;7.50;;
1380;SDS011;684;48.342;10.096;2022-08-21T03:27:10;7.90;;;6.10;;
1380;SDS011;684;48.342;10.096;2022-08-21T03:29:38;9.80;;;6.97;;
1380;SDS011;684;48.342;10.096;2022-08-21T03:32:05;12.50;;;6.77;;
1380;SDS011;684;48.342;10.096;2022-08-21T03:34:34;9.20;;;5.87;;
1380;SDS011;684;48.342;10.096;2022-08-21T03:37:02;11.20;;;6.20;;
1380;SDS011;684;48.342;10.096;2022-08-21T03:39:30;7.40;;;5.90;;
1380;SDS011;684;48.342;10.096;2022-08-21T03:41:57;9.50;;;5.80;;
1380;SDS011;684;48.342;10.096;2022-08-21T03:44:25;8.73;;;6.37;;
1380;SDS011;684;48.342;10.096;2022-08-21T03:46:53;12.87;;;6.60;;
1380;SDS011;684;48.342;10.096;2022-08-21T03:49:20;8.37;;;6.50;;
1380;SDS011;684;48.342;10.096;2022-08-21T03:51:47;8.30;;;6.50;;
1380;SDS011;684;48.342;10.096;2022-08-21T03:54:15;7.60;;;6.10;;
1380;SDS011;684;48.342;10.096;2022-08-21T03:56:42;8.37;;;6.43;;
1380;SDS011;684;48.342;10.096;2022-08-21T03:59:10;14.50;;;6.90;;
1380;SDS011;684;48.342;10.096;2022-08-21T04:01:37;9.33;;;6.17;;
1380;SDS011;684;48.342;10.096;2022-08-21T04:04:04;8.23;;;6.00;;
1380;SDS011;684;48.342;10.096;2022-08-21T04:06:31;7.33;;;5.57;;
1380;SDS011;684;48.342;10.096;2022-08-21T04:08:58;7.90;;;5.50;;
1380;SDS011;684;48.342;10.096;2022-08-21T04:11:27;7.80;;;6.10;;
1380;SDS011;684;48.342;10.096;2022-08-21T04:13:54;7.37;;;5.47;;
1380;SDS011;684;48.342;10.096;2022-08-21T04:16:20;10.80;;;5.50;;
1380;SDS011;684;48.342;10.096;2022-08-21T04:18:47;8.50;;;5.57;;
1380;SDS011;684;48.342;10.096;2022-08-21T04:21:14;7.47;;;5.27;;
1380;SDS011;684;48.342;10.096;2022-08-21T04:23:41;9.53;;;6.20;;
1380;SDS011;684;48.342;10.096;2022-08-21T04:26:08;7.00;;;5.23;;
1380;SDS011;684;48.342;10.096;2022-08-21T04:28:37;7.10;;;5.27;;
1380;SDS011;684;48.342;10.096;2022-08-21T04:31:04;7.27;;;5.40;;
1380;SDS011;684;48.342;10.096;2022-08-21T04:33:31;9.47;;;5.50;;
1380;SDS011;684;48.342;10.096;2022-08-21T04:35:58;9.47;;;5.43;;
1380;SDS011;684;48.342;10.096;2022-08-21T04:38:25;7.97;;;5.03;;
1380;SDS011;684;48.342;10.096;2022-08-21T04:40:52;7.50;;;5.83;;
1380;SDS011;684;48.342;10.096;2022-08-21T04:43:19;7.20;;;5.60;;
1380;SDS011;684;48.342;10.096;2022-08-21T04:45:49;8.63;;;5.97;;
1380;SDS011;684;48.342;10.096;2022-08-21T04:48:19;13.73;;;6.20;;
1380;SDS011;684;48.342;10.096;2022-08-21T04:50:47;7.73;;;5.43;;
1380;SDS011;684;48.342;10.096;2022-08-21T04:53:18;9.73;;;6.17;;
1380;SDS011;684;48.342;10.096;2022-08-21T04:55:48;10.20;;;5.07;;
1380;SDS011;684;48.342;10.096;2022-08-21T04:58:18;10.20;;;4.37;;
1380;SDS011;684;48.342;10.096;2022-08-21T05:00:46;6.97;;;5.17;;
1380;SDS011;684;48.342;10.096;2022-08-21T05:03:15;6.57;;;4.63;;
1380;SDS011;684;48.342;10.096;2022-08-21T05:05:43;7.20;;;4.63;;
1380;SDS011;684;48.342;10.096;2022-08-21T05:08:11;6.80;;;4.93;;
1380;SDS011;684;48.342;10.096;2022-08-21T05:10:40;8.00;;;5.40;;
1380;SDS011;684;48.342;10.096;2022-08-21T05:13:08;7.20;;;5.07;;
1380;SDS011;684;48.342;10.096;2022-08-21T05:15:35;6.47;;;4.50;;
1380;SDS011;684;48.342;10.096;2022-08-21T05:18:02;6.30;;;4.40;;
1380;SDS011;684;48.342;10.096;2022-08-21T05:20:30;6.83;;;5.10;;
1380;SDS011;684;48.342;10.096;2022-08-21T05:22:59;6.27;;;4.43;;
1380;SDS011;684;48.342;10.096;2022-08-21T05:25:26;6.50;;;4.70;;
1380;SDS011;684;48.342;10.096;2022-08-21T05:27:53;6.20;;;4.00;;
1380;SDS011;684;48.342;10.096;2022-08-21T05:30:21;7.03;;;3.93;;
1380;SDS011;684;48.342;10.096;2022-08-21T05:32:48;5.97;;;4.07;;
1380;SDS011;684;48.342;10.096;2022-08-21T05:35:15;6.33;;;4.47;;
1380;SDS011;684;48.342;10.096;2022-08-21T05:37:43;6.17;;;4.13;;
1380;SDS011;684;48.342;10.096;2022-08-21T05:40:10;6.03;;;4.20;;
1380;SDS011;684;48.342;10.096;2022-08-21T05:42:37;6.13;;;4.00;;
1380;SDS011;684;48.342;10.096;2022-08-21T05:45:04;5.30;;;3.20;;
1380;SDS011;684;48.342;10.096;2022-08-21T05:47:31;5.40;;;3.50;;
1380;SDS011;684;48.342;10.096;2022-08-21T05:49:58;5.57;;;4.00;;
1380;SDS011;684;48.342;10.096;2022-08-21T05:52:24;6.87;;;4.10;;
1380;SDS011;684;48.342;10.096;2022-08-21T05:54:52;6.47;;;4.13;;
1380;SDS011;684;48.342;10.096;2022-08-21T05:57:19;5.77;;;3.50;;
1380;SDS011;684;48.342;10.096;2022-08-21T05:59:46;6.60;;;3.60;;
1380;SDS011;684;48.342;10.096;2022-08-21T06:02:13;5.80;;;3.50;;
1380;SDS011;684;48.342;10.096;2022-08-21T06:04:40;6.00;;;3.50;;
1380;SDS011;684;48.342;10.096;2022-08-21T06:07:07;5.70;;;3.30;;
1380;SDS011;684;48.342;10.096;2022-08-21T06:09:34;4.80;;;2.87;;
1380;SDS011;684;48.342;10.096;2022-08-21T06:12:05;5.63;;;3.10;;
1380;SDS011;684;48.342;10.096;2022-08-21T06:14:33;5.73;;;3.00;;
1380;SDS011;684;48.342;10.096;2022-08-21T06:17:03;10.93;;;3.80;;
1380;SDS011;684;48.342;10.096;2022-08-21T06:19:30;5.20;;;2.73;;
1380;SDS011;684;48.342;10.096;2022-08-21T06:21:57;4.00;;;2.30;;
1380;SDS011;684;48.342;10.096;2022-08-21T06:24:24;4.80;;;2.43;;
1380;SDS011;684;48.342;10.096;2022-08-21T06:26:51;4.70;;;2.27;;
1380;SDS011;684;48.342;10.096;2022-08-21T06:29:19;4.37;;;2.10;;
1380;SDS011;684;48.342;10.096;2022-08-21T06:31:47;3.87;;;1.83;;
1380;SDS011;684;48.342;10.096;2022-08-21T06:34:15;4.17;;;2.03;;
1380;SDS011;684;48.342;10.096;2022-08-21T06:36:43;4.87;;;1.90;;
1380;SDS011;684;48.342;10.096;2022-08-21T06:39:11;4.30;;;2.13;;
1380;SDS011;684;48.342;10.096;2022-08-21T06:41:38;3.50;;;1.70;;
1380;SDS011;684;48.342;10.096;2022-08-21T06:44:05;4.20;;;2.20;;
1380;SDS011;684;48.342;10.096;2022-08-21T06:46:34;6.47;;;2.17;;
1380;SDS011;684;48.342;10.096;2022-08-21T06:49:01;3.80;;;1.83;;
1380;SDS011;684;48.342;10.096;2022-08-21T06:51:27;3.80;;;1.80;;
1380;SDS011;684;48.342;10.096;2022-08-21T06:53:54;5.60;;;1.57;;
1380;SDS011;684;48.342;10.096;2022-08-21T06:56:21;4.67;;;1.83;;
1380;SDS011;684;48.342;10.096;2022-08-21T06:58:48;4.20;;;1.80;;
1380;SDS011;684;48.342;10.096;2022-08-21T07:01:15;3.90;;;1.80;;
1380;SDS011;684;48.342;10.096;2022-08-21T07:03:43;4.30;;;1.53;;
1380;SDS011;684;48.342;10.096;2022-08-21T07:06:10;4.77;;;1.50;;
1380;SDS011;684;48.342;10.096;2022-08-21T07:08:38;6.33;;;1.60;;
1380;SDS011;684;48.342;10.096;2022-08-21T07:11:07;4.30;;;1.70;;
1380;SDS011;684;48.342;10.096;2022-08-21T07:13:38;5.40;;;1.70;;
1380;SDS011;684;48.342;10.096;2022-08-21T07:16:05;4.30;;;1.43;;
1380;SDS011;684;48.342;10.096;2022-08-21T07:18:33;3.57;;;1.77;;
1380;SDS011;684;48.342;10.096;2022-08-21T07:21:01;3.57;;;1.70;;
1380;SDS011;684;48.342;10.096;2022-08-21T07:23:30;6.53;;;1.70;;
1380;SDS011;684;48.342;10.096;2022-08-21T07:25:59;5.00;;;1.97;;
1380;SDS011;684;48.342;10.096;2022-08-21T07:28:26;5.77;;;1.60;;
1380;SDS011;684;48.342;10.096;2022-08-21T07:30:54;4.90;;;2.17;;
1380;SDS011;684;48.342;10.096;2022-08-21T07:33:23;4.30;;;1.20;;
1380;SDS011;684;48.342;10.096;2022-08-21T07:35:51;3.57;;;1.50;;
1380;SDS011;684;48.342;10.096;2022-08-21T07:38:19;4.93;;;1.70;;
1380;SDS011;684;48.342;10.096;2022-08-21T07:40:46;5.10;;;1.70;;
1380;SDS011;684;48.342;10.096;2022-08-21T07:43:14;4.67;;;1.70;;
1380;SDS011;684;48.342;10.096;2022-08-21T07:45:43;5.20;;;1.60;;
1380;SDS011;684;48.342;10.096;2022-08-21T07:48:10;3.93;;;1.83;;
1380;SDS011;684;48.342;10.096;2022-08-21T07:50:36;3.67;;;1.47;;
1380;SDS011;684;48.342;10.096;2022-08-21T07:53:04;3.87;;;2.20;;
1380;SDS011;684;48.342;10.096;2022-08-21T07:55:33;3.90;;;1.70;;
1380;SDS011;684;48.342;10.096;2022-08-21T07:58:00;5.60;;;1.87;;
1380;SDS011;684;48.342;10.096;2022-08-21T08:00:27;3.87;;;1.77;;
1380;SDS011;684;48.342;10.096;2022-08-21T08:02:55;3.70;;;2.10;;
1380;SDS011;684;48.342;10.096;2022-08-21T08:05:24;5.30;;;1.90;;
1380;SDS011;684;48.342;10.096;2022-08-21T08:07:52;3.60;;;1.80;;
1380;SDS011;684;48.342;10.096;2022-08-21T08:10:20;3.57;;;1.50;;
1380;SDS011;684;48.342;10.096;2022-08-21T08:12:49;3.93;;;1.93;;
1380;SDS011;684;48.342;10.096;2022-08-21T08:15:18;3.97;;;1.87;;
1380;SDS011;684;48.342;10.096;2022-08-21T08:17:47;4.27;;;2.20;;
1380;SDS011;684;48.342;10.096;2022-08-21T08:20:15;4.70;;;1.90;;
1380;SDS011;684;48.342;10.096;2022-08-21T08:22:43;4.23;;;1.80;;
1380;SDS011;684;48.342;10.096;2022-08-21T08:25:11;4.10;;;1.57;;
1380;SDS011;684;48.342;10.096;2022-08-21T08:27:39;4.13;;;2.47;;
1380;SDS011;684;48.342;10.096;2022-08-21T08:30:09;4.40;;;2.40;;
1380;SDS011;684;48.342;10.096;2022-08-21T08:32:38;5.27;;;2.30;;
1380;SDS011;684;48.342;10.096;2022-08-21T08:35:05;4.30;;;2.23;;
1380;SDS011;684;48.342;10.096;2022-08-21T08:37:33;4.17;;;2.33;;
1380;SDS011;684;48.342;10.096;2022-08-21T08:40:03;4.47;;;2.63;;
1380;SDS011;684;48.342;10.096;2022-08-21T08:42:31;4.10;;;2.40;;
1380;SDS011;684;48.342;10.096;2022-08-21T08:45:00;4.13;;;2.53;;
1380;SDS011;684;48.342;10.096;2022-08-21T08:47:33;5.00;;;2.33;;
1380;SDS011;684;48.342;10.096;2022-08-21T08:50:04;4.50;;;2.50;;
1380;SDS011;684;48.342;10.096;2022-08-21T08:52:36;5.10;;;2.27;;
1380;SDS011;684;48.342;10.096;2022-08-21T08:55:13;4.07;;;2.17;;
1380;SDS011;684;48.342;10.096;2022-08-21T08:57:44;5.80;;;2.60;;
1380;SDS011;684;48.342;10.096;2022-08-21T09:00:14;3.87;;;2.33;;
1380;SDS011;684;48.342;10.096;2022-08-21T09:02:45;4.87;;;2.30;;
1380;SDS011;684;48.342;10.096;2022-08-21T09:05:17;6.10;;;2.93;;
1380;SDS011;684;48.342;10.096;2022-08-21T09:07:51;6.03;;;3.00;;
1380;SDS011;684;48.342;10.096;2022-08-21T09:10:34;4.23;;;2.70;;
1380;SDS011;684;48.342;10.096;2022-08-21T09:13:12;5.13;;;2.53;;
1380;SDS011;684;48.342;10.096;2022-08-21T09:15:46;5.03;;;2.30;;
1380;SDS011;684;48.342;10.096;2022-08-21T09:18:24;5.83;;;2.80;;
1380;SDS011;684;48.342;10.096;2022-08-21T09:21:02;5.80;;;3.00;;
1380;SDS011;684;48.342;10.096;2022-08-21T09:23:40;4.73;;;2.47;;
1380;SDS011;684;48.342;10.096;2022-08-21T09:26:14;4.97;;;2.80;;
1380;SDS011;684;48.342;10.096;2022-08-21T09:28:43;4.97;;;2.30;;
1380;SDS011;684;48.342;10.096;2022-08-21T09:31:15;6.30;;;3.07;;
1380;SDS011;684;48.342;10.096;2022-08-21T09:33:49;7.77;;;2.93;;
1380;SDS011;684;48.342;10.096;2022-08-21T09:36:22;6.60;;;2.80;;
1380;SDS011;684;48.342;10.096;2022-08-21T09:38:52;6.30;;;3.20;;
1380;SDS011;684;48.342;10.096;2022-08-21T09:41:25;7.53;;;2.77;;
1380;SDS011;684;48.342;10.096;2022-08-21T09:43:53;6.47;;;3.07;;
1380;SDS011;684;48.342;10.096;2022-08-21T09:46:21;5.87;;;3.00;;
1380;SDS011;684;48.342;10.096;2022-08-21T09:48:51;7.23;;;2.63;;
1380;SDS011;684;48.342;10.096;2022-08-21T09:51:21;5.23;;;2.57;;
1380;SDS011;684;48.342;10.096;2022-08-21T09:53:51;5.60;;;2.50;;
1380;SDS011;684;48.342;10.096;2022-08-21T09:56:28;5.60;;;2.87;;
1380;SDS011;684;48.342;10.096;2022-08-21T09:59:19;5.93;;;2.83;;
1380;SDS011;684;48.342;10.096;2022-08-21T10:01:56;5.10;;;2.67;;
1380;SDS011;684;48.342;10.096;2022-08-21T10:04:29;6.63;;;2.60;;
1380;SDS011;684;48.342;10.096;2022-08-21T10:07:06;7.20;;;3.07;;
1380;SDS011;684;48.342;10.096;2022-08-21T10:09:34;5.93;;;2.30;;
1380;SDS011;684;48.342;10.096;2022-08-21T10:12:06;5.77;;;2.80;;
1380;SDS011;684;48.342;10.096;2022-08-21T10:14:44;6.60;;;2.90;;
1380;SDS011;684;48.342;10.096;2022-08-21T10:17:20;5.30;;;2.13;;
1380;SDS011;684;48.342;10.096;2022-08-21T10:19:59;6.10;;;2.90;;
1380;SDS011;684;48.342;10.096;2022-08-21T10:22:32;4.87;;;2.47;;
1380;SDS011;684;48.342;10.096;2022-08-21T10:25:09;6.00;;;3.00;;
1380;SDS011;684;48.342;10.096;2022-08-21T10:27:46;7.37;;;2.80;;
1380;SDS011;684;48.342;10.096;2022-08-21T10:30:27;5.67;;;2.87;;
1380;SDS011;684;48.342;10.096;2022-08-21T10:33:10;4.47;;;2.93;;
1380;SDS011;684;48.342;10.096;2022-08-21T10:35:50;6.83;;;2.63;;
1380;SDS011;684;48.342;10.096;2022-08-21T10:38:32;6.67;;;3.03;;
1380;SDS011;684;48.342;10.096;2022-08-21T10:41:18;4.40;;;2.37;;
1380;SDS011;684;48.342;10.096;2022-08-21T10:43:56;4.60;;;2.33;;
1380;SDS011;684;48.342;10.096;2022-08-21T10:46:37;6.50;;;2.63;;
1380;SDS011;684;48.342;10.096;2022-08-21T10:49:22;6.20;;;2.87;;
1380;SDS011;684;48.342;10.096;2022-08-21T10:52:02;5.33;;;2.80;;
1380;SDS011;684;48.342;10.096;2022-08-21T10:54:44;4.13;;;2.30;;
1380;SDS011;684;48.342;10.096;2022-08-21T10:57:19;5.40;;;2.57;;
1380;SDS011;684;48.342;10.096;2022-08-21T10:59:54;6.93;;;2.20;;
1380;SDS011;684;48.342;10.096;2022-08-21T11:02:25;6.30;;;2.30;;
1380;SDS011;684;48.342;10.096;2022-08-21T11:04:59;6.00;;;2.50;;
1380;SDS011;684;48.342;10.096;2022-08-21T11:07:33;5.90;;;2.90;;
1380;SDS011;684;48.342;10.096;2022-08-21T11:10:04;5.33;;;2.53;;
1380;SDS011;684;48.342;10.096;2022-08-21T11:12:39;6.27;;;2.73;;
1380;SDS011;684;48.342;10.096;2022-08-21T11:15:11;6.63;;;3.60;;
1380;SDS011;684;48.342;10.096;2022-08-21T11:17:51;6.20;;;2.70;;
1380;SDS011;684;48.342;10.096;2022-08-21T11:20:26;6.40;;;3.00;;
1380;SDS011;684;48.342;10.096;2022-08-21T11:22:58;6.20;;;2.60;;
1380;SDS011;684;48.342;10.096;2022-08-21T11:25:31;7.33;;;3.50;;
1380;SDS011;684;48.342;10.096;2022-08-21T11:28:03;4.50;;;2.60;;
1380;SDS011;684;48.342;10.096;2022-08-21T11:30:37;7.57;;;3.00;;
1380;SDS011;684;48.342;10.096;2022-08-21T11:33:15;6.40;;;2.87;;
1380;SDS011;684;48.342;10.096;2022-08-21T11:35:58;5.57;;;2.70;;
1380;SDS011;684;48.342;10.096;2022-08-21T11:38:35;6.47;;;3.13;;
1380;SDS011;684;48.342;10.096;2022-08-21T11:41:20;7.33;;;3.23;;
1380;SDS011;684;48.342;10.096;2022-08-21T11:43:55;5.20;;;2.70;;
1380;SDS011;684;48.342;10.096;2022-08-21T11:46:36;4.40;;;2.57;;
1380;SDS011;684;48.342;10.096;2022-08-21T11:49:25;10.27;;;3.20;;
1380;SDS011;684;48.342;10.096;2022-08-21T11:52:07;7.37;;;2.97;;
1380;SDS011;684;48.342;10.096;2022-08-21T11:54:41;7.47;;;3.03;;
1380;SDS011;684;48.342;10.096;2022-08-21T11:57:13;8.90;;;3.20;;
1380;SDS011;684;48.342;10.096;2022-08-21T11:59:47;8.13;;;3.47;;
1380;SDS011;684;48.342;10.096;2022-08-21T12:02:33;7.13;;;3.10;;
1380;SDS011;684;48.342;10.096;2022-08-21T12:05:03;5.27;;;2.83;;
1380;SDS011;684;48.342;10.096;2022-08-21T12:07:33;10.93;;;3.20;;
1380;SDS011;684;48.342;10.096;2022-08-21T12:10:04;8.53;;;4.20;;
1380;SDS011;684;48.342;10.096;2022-08-21T12:12:35;5.50;;;2.63;;
1380;SDS011;684;48.342;10.096;2022-08-21T12:15:06;8.77;;;3.03;;
1380;SDS011;684;48.342;10.096;2022-08-21T12:17:51;6.20;;;3.03;;
1380;SDS011;684;48.342;10.096;2022-08-21T12:20:23;6.23;;;2.83;;
1380;SDS011;684;48.342;10.096;2022-08-21T12:23:02;7.30;;;2.90;;
1380;SDS011;684;48.342;10.096;2022-08-21T12:25:37;7.80;;;3.33;;
1380;SDS011;684;48.342;10.096;2022-08-21T12:28:07;7.30;;;3.23;;
1380;SDS011;684;48.342;10.096;2022-08-21T12:30:37;6.50;;;3.43;;
1380;SDS011;684;48.342;10.096;2022-08-21T12:33:06;7.20;;;3.07;;
1380;SDS011;684;48.342;10.096;2022-08-21T12:35:47;5.43;;;2.40;;
1380;SDS011;684;48.342;10.096;2022-08-21T12:38:17;4.93;;;2.90;;
1380;SDS011;684;48.342;10.096;2022-08-21T12:40:48;5.60;;;3.00;;
1380;SDS011;684;48.342;10.096;2022-08-21T12:43:20;8.83;;;2.77;;
1380;SDS011;684;48.342;10.096;2022-08-21T12:45:53;8.43;;;2.47;;
1380;SDS011;684;48.342;10.096;2022-08-21T12:48:23;7.60;;;2.70;;
1380;SDS011;684;48.342;10.096;2022-08-21T12:50:55;7.70;;;2.93;;
1380;SDS011;684;48.342;10.096;2022-08-21T12:53:26;7.73;;;2.57;;
1380;SDS011;684;48.342;10.096;2022-08-21T12:56:01;6.23;;;2.60;;
1380;SDS011;684;48.342;10.096;2022-08-21T12:58:29;7.90;;;2.90;;
1380;SDS011;684;48.342;10.096;2022-08-21T13:00:59;7.23;;;3.03;;
1380;SDS011;684;48.342;10.096;2022-08-21T13:03:30;6.60;;;2.60;;
1380;SDS011;684;48.342;10.096;2022-08-21T13:06:02;5.50;;;2.87;;
1380;SDS011;684;48.342;10.096;2022-08-21T13:08:30;5.73;;;2.80;;
1380;SDS011;684;48.342;10.096;2022-08-21T13:11:03;6.87;;;2.93;;
1380;SDS011;684;48.342;10.096;2022-08-21T13:13:32;6.60;;;3.23;;
1380;SDS011;684;48.342;10.096;2022-08-21T13:16:00;8.67;;;3.77;;
1380;SDS011;684;48.342;10.096;2022-08-21T13:18:32;5.57;;;2.40;;
1380;SDS011;684;48.342;10.096;2022-08-21T13:21:04;7.40;;;3.23;;
1380;SDS011;684;48.342;10.096;2022-08-21T13:23:33;5.37;;;2.63;;
1380;SDS011;684;48.342;10.096;2022-08-21T13:26:00;8.20;;;2.80;;
1380;SDS011;684;48.342;10.096;2022-08-21T13:28:38;5.80;;;2.57;;
1380;SDS011;684;48.342;10.096;2022-08-21T13:31:06;5.37;;;2.60;;
1380;SDS011;684;48.342;10.096;2022-08-21T13:33:35;5.63;;;2.50;;
1380;SDS011;684;48.342;10.096;2022-08-21T13:36:04;4.73;;;2.50;;
1380;SDS011;684;48.342;10.096;2022-08-21T13:38:35;6.70;;;2.53;;
1380;SDS011;684;48.342;10.096;2022-08-21T13:41:06;8.10;;;2.70;;
1380;SDS011;684;48.342;10.096;2022-08-21T13:43:44;6.77;;;2.30;;
1380;SDS011;684;48.342;10.096;2022-08-21T13:46:13;5.43;;;2.43;;
1380;SDS011;684;48.342;10.096;2022-08-21T13:48:40;8.20;;;3.10;;
1380;SDS011;684;48.342;10.096;2022-08-21T13:51:08;5.60;;;3.03;;
1380;SDS011;684;48.342;10.096;2022-08-21T13:53:43;9.43;;;3.10;;
1380;SDS011;684;48.342;10.096;2022-08-21T13:56:22;5.87;;;2.90;;
1380;SDS011;684;48.342;10.096;2022-08-21T13:58:52;5.60;;;2.30;;
1380;SDS011;684;48.342;10.096;2022-08-21T14:01:21;4.37;;;2.13;;
1380;SDS011;684;48.342;10.096;2022-08-21T14:03:50;6.60;;;2.80;;
1380;SDS011;684;48.342;10.096;2022-08-21T14:06:22;5.27;;;2.17;;
1380;SDS011;684;48.342;10.096;2022-08-21T14:08:51;6.80;;;2.67;;
1380;SDS011;684;48.342;10.096;2022-08-21T14:11:21;5.73;;;2.90;;
1380;SDS011;684;48.342;10.096;2022-08-21T14:13:49;6.50;;;2.90;;
1380;SDS011;684;48.342;10.096;2022-08-21T14:16:40;6.87;;;2.50;;
1380;SDS011;684;48.342;10.096;2022-08-21T14:19:12;7.07;;;2.63;;
1380;SDS011;684;48.342;10.096;2022-08-21T14:21:45;8.33;;;2.50;;
1380;SDS011;684;48.342;10.096;2022-08-21T14:24:13;6.43;;;2.93;;
1380;SDS011;684;48.342;10.096;2022-08-21T14:26:52;5.40;;;2.67;;
1380;SDS011;684;48.342;10.096;2022-08-21T14:29:24;7.00;;;3.03;;
1380;SDS011;684;48.342;10.096;2022-08-21T14:31:54;5.83;;;2.40;;
1380;SDS011;684;48.342;10.096;2022-08-21T14:34:22;8.97;;;2.90;;
1380;SDS011;684;48.342;10.096;2022-08-21T14:36:52;5.70;;;2.90;;
1380;SDS011;684;48.342;10.096;2022-08-21T14:39:19;5.80;;;2.70;;
1380;SDS011;684;48.342;10.096;2022-08-21T14:41:46;6.50;;;3.00;;
1380;SDS011;684;48.342;10.096;2022-08-21T14:44:14;5.93;;;2.73;;
1380;SDS011;684;48.342;10.096;2022-08-21T14:46:43;6.33;;;2.90;;
1380;SDS011;684;48.342;10.096;2022-08-21T14:49:11;6.13;;;3.00;;
1380;SDS011;684;48.342;10.096;2022-08-21T14:51:38;5.53;;;2.70;;
1380;SDS011;684;48.342;10.096;2022-08-21T14:54:05;5.13;;;2.50;;
1380;SDS011;684;48.342;10.096;2022-08-21T14:56:32;6.47;;;2.97;;
1380;SDS011;684;48.342;10.096;2022-08-21T14:59:00;6.03;;;2.60;;
1380;SDS011;684;48.342;10.096;2022-08-21T15:01:30;5.53;;;2.80;;
1380;SDS011;684;48.342;10.096;2022-08-21T15:04:01;6.30;;;2.70;;
1380;SDS011;684;48.342;10.096;2022-08-21T15:06:28;5.57;;;2.60;;
1380;SDS011;684;48.342;10.096;2022-08-21T15:08:56;6.33;;;3.00;;
1380;SDS011;684;48.342;10.096;2022-08-21T15:11:23;7.57;;;2.80;;
1380;SDS011;684;48.342;10.096;2022-08-21T15:13:53;5.93;;;2.70;;
1380;SDS011;684;48.342;10.096;2022-08-21T15:16:22;6.20;;;2.60;;
1380;SDS011;684;48.342;10.096;2022-08-21T15:18:49;6.47;;;3.50;;
1380;SDS011;684;48.342;10.096;2022-08-21T15:21:17;5.57;;;2.40;;
1380;SDS011;684;48.342;10.096;2022-08-21T15:23:44;4.87;;;2.40;;
1380;SDS011;684;48.342;10.096;2022-08-21T15:26:11;5.20;;;2.20;;
1380;SDS011;684;48.342;10.096;2022-08-21T15:28:38;6.20;;;2.90;;
1380;SDS011;684;48.342;10.096;2022-08-21T15:31:05;7.27;;;2.80;;
1380;SDS011;684;48.342;10.096;2022-08-21T15:33:32;6.83;;;2.60;;